Terminal Aerodrome Forecast
Issued by NWS Billings, MT

Home | Current Version | Previous Version | Text Only | Print | Product List | Glossary On
Versions: 1 2 3 4 5 6 7 8 9 10 11 12 13 14 15 16 17 18 19 20 21 22 23 24 25 26
000
FTUS45 KBYZ 220520
TAFSHR
TAF
KSHR 220520Z 2206/2306 32025G35KT P6SM VCSH SCT030 OVC080
      TEMPO 2206/2208 5SM -SHSN OVC028
     FM220900 31020G30KT P6SM SCT040 OVC100
     FM221900 33025G40KT P6SM BKN070
     FM230000 33025G40KT P6SM VCSH BKN050=

USA.gov is the U.S. government's official web portal to all federal, state and local government web resources and services.